Glynco, Georgia
Current Conditions -  °F | °C
As of 8:53 AM on Sunday 21 Dec 2014 (Local Time) from KSSI Reporting Station
Overcast Overcast  
Wind Chill: 53°   Ceiling: 500
Heat Index: 53°   Visibility: 10mi
Dew Point: 51°   Wind: 15mph
Humidity: 93%   Direction: 30°NNE
Pressure: 30.16"   Gusts: NA
Location:  31.1428°N, 81.4709°W
Report Text: KSSI 211353Z AUTO 03013KT 10SM OVC005 12/11 A3016 RMK AO2 RAE07 SLP213 P0001 T01170106
Loading
Personal Weather Stations






























Interactive Weather Map New forecast layout! Learn more

10-Day Weather Forecast

Advertisements
Track Severe Weather on mobile